Wetterdaten: aktuell Freitag, 22.08.2014 03:45
Datum Zeit Temperatur Feuchte Luftdruck Regen Wind Richtung Richtung Taupunkt Windchill
22.08.2014 03:45 11,0 C 88 % 1013,8 hPa 0,0 l/m 7,7 km/h (2 Bft) SO67.5 135 9,1 C 11,0 C
22.08.2014 02:45 11,3 C 87 % 1013,8 hPa 0,0 l/m 11,1 km/h (2 Bft) SO45 140 9,2 C 11,3 C
22.08.2014 01:45 11,7 C 85 % 1013,7 hPa 0,0 l/m 8,1 km/h (2 Bft) S-SO 150 9,3 C 11,7 C
22.08.2014 00:45 12,5 C 83 % 1014,7 hPa 0,0 l/m 12,6 km/h (3 Bft) S-SO67.5 155 9,7 C 12,5 C
21.08.2014 23:45 12,6 C 84 % 1014,7 hPa 0,0 l/m 7,1 km/h (2 Bft) SO67.5 145 10,0 C 12,6 C
21.08.2014 22:45 12,3 C 83 % 1014,7 hPa 0,0 l/m 10,4 km/h (2 Bft) SO 125 9,5 C 12,3 C
21.08.2014 21:45 13,0 C 80 % 1014,7 hPa 0,0 l/m 6,5 km/h (2 Bft) O-SO22.5 120 9,6 C 13,0 C
21.08.2014 20:45 14,4 C 72 % 1014,5 hPa 0,4 l/m 16,2 km/h (3 Bft) S45 180 9,4 C 14,4 C
21.08.2014 19:45 16,0 C 64 % 1014,4 hPa 0,0 l/m 11,2 km/h (2 Bft) S 170 9,2 C 16,0 C
21.08.2014 18:45 17,3 C 61 % 1014,3 hPa 0,0 l/m 12,0 km/h (2 Bft) S45 190 9,7 C 17,3 C
21.08.2014 17:45 18,3 C 57 % 1014,2 hPa 0,0 l/m 12,1 km/h (2 Bft) S22.5 170 9,6 C 18,3 C
21.08.2014 16:45 18,1 C 57 % 1015,3 hPa 0,0 l/m 11,8 km/h (2 Bft) S-SW45 205 9,4 C 18,1 C
21.08.2014 15:45 17,9 C 60 % 1015,3 hPa 0,0 l/m 12,1 km/h (2 Bft) SW67.5 225 10,0 C 17,9 C
21.08.2014 14:45 18,4 C 58 % 1015,2 hPa 0,0 l/m 9,2 km/h (2 Bft) W-SW45 240 10,0 C 18,4 C
21.08.2014 13:45 18,8 C 61 % 1016,2 hPa 0,0 l/m 14,1 km/h (3 Bft) S-SW22.5 195 11,1 C 18,8 C
21.08.2014 12:45 18,1 C 67 % 1016,3 hPa 0,0 l/m 14,3 km/h (3 Bft) S45 175 11,9 C 18,1 C
21.08.2014 11:45 16,2 C 74 % 1016,4 hPa 0,0 l/m 8,7 km/h (2 Bft) S-SO45 150 11,6 C 16,2 C
21.08.2014 10:45 14,6 C 84 % 1016,6 hPa 0,0 l/m 10,1 km/h (2 Bft) SO45 135 11,9 C 14,6 C
21.08.2014 09:45 12,2 C 95 % 1016,8 hPa 0,0 l/m 5,7 km/h (1 Bft) SO67.5 130 11,4 C 12,2 C
21.08.2014 08:45 9,9 C 96 % 1017,0 hPa 0,0 l/m 7,0 km/h (2 Bft) O-SO 120 9,3 C 9,1 C
21.08.2014 07:45 8,7 C 95 % 1017,1 hPa 0,0 l/m 8,9 km/h (2 Bft) SO 135 7,9 C 7,3 C
21.08.2014 06:45 8,1 C 95 % 1017,1 hPa 0,0 l/m 3,4 km/h (1 Bft) O-SO 115 7,3 C 8,1 C
21.08.2014 05:45 8,6 C 94 % 1016,1 hPa 0,0 l/m 0,7 km/h (0 Bft) S 170 7,7 C 8,6 C
21.08.2014 04:39 9,0 C 94 % 1016,0 hPa 0,4 l/m 5,0 km/h (1 Bft) S 175 8,1 C 8,6 C
21.08.2014 04:00 9,3 C 93 % 1017,0 hPa 0,0 l/m 1,3 km/h (1 Bft) S 175 8,2 C 9,3 C
_ Min-Zeit 06:51 14:18 01:18 - 05:39 - - 06:30 06:51
Minimum _ 8,0 C 53 % 1013,7 hPa - 0,7 km/h (0 Bft) - - 7,2 C 6,8 C
_ Max-Zeit 14:21 07:48 06:51 04:27 14:15 - - 11:12 14:21
Maximum _ 19,9 C 96 % 1017,1 hPa 0,4 l/m 25,5 km/h
S-SW (4 Bft)
- - 12,5 C 19,9 C
Durchschnitt _ 13,4 C 79 % 1015,6 hPa #0,7 l/m 9,0 km/h (2 Bft) SO - 9,5 C 13,3 C